createdAt,value
2018-07-28T00:01:17.214Z,53.26
2018-07-28T00:06:21.258Z,52.39
2018-07-28T00:11:25.049Z,52.42
2018-07-28T00:16:28.660Z,53.07
2018-07-28T00:21:32.555Z,53.00
2018-07-28T00:26:36.259Z,52.94
2018-07-28T00:31:39.914Z,52.97
2018-07-28T00:36:43.654Z,52.57
2018-07-28T00:41:47.322Z,52.39
2018-07-28T00:46:51.003Z,53.18
2018-07-28T00:51:54.667Z,52.91
2018-07-28T00:56:58.310Z,52.95
2018-07-28T01:02:01.971Z,52.75
2018-07-28T01:07:05.858Z,51.99
2018-07-28T01:12:09.647Z,52.52
2018-07-28T01:17:13.382Z,52.41
2018-07-28T01:22:17.085Z,52.38
2018-07-28T01:27:20.838Z,53.24
2018-07-28T01:32:24.502Z,52.22
2018-07-28T01:37:28.250Z,53.38
2018-07-28T01:42:31.894Z,52.70
2018-07-28T01:47:36.233Z,53.07
2018-07-28T01:52:40.365Z,53.25
2018-07-28T01:57:44.186Z,53.01
2018-07-28T02:02:47.984Z,52.53
2018-07-28T02:07:51.937Z,52.13
2018-07-28T02:12:56.244Z,52.33
2018-07-28T02:17:59.994Z,52.20
2018-07-28T02:23:03.812Z,52.24
2018-07-28T02:28:08.102Z,51.94
2018-07-28T02:33:12.449Z,52.03
2018-07-28T02:38:16.463Z,52.32
2018-07-28T02:43:20.489Z,52.35
2018-07-28T02:48:24.331Z,52.32
2018-07-28T02:53:28.298Z,51.72
2018-07-28T02:58:32.130Z,51.73
2018-07-28T03:03:35.875Z,52.00
2018-07-28T03:08:39.772Z,52.00
2018-07-28T03:13:43.523Z,51.81
2018-07-28T03:18:47.233Z,52.10
2018-07-28T03:23:50.976Z,52.30
2018-07-28T03:28:54.741Z,51.75
2018-07-28T03:33:58.382Z,51.74
2018-07-28T03:39:02.288Z,52.36
2018-07-28T03:44:06.121Z,52.23
2018-07-28T03:49:09.902Z,51.44
2018-07-28T03:54:13.586Z,51.76
2018-07-28T03:59:17.360Z,52.09
2018-07-28T04:04:21.029Z,52.14
2018-07-28T04:09:24.714Z,51.81
2018-07-28T04:14:28.436Z,51.97
2018-07-28T04:19:32.222Z,52.35
2018-07-28T04:24:35.941Z,51.93
2018-07-28T04:29:39.713Z,52.14
2018-07-28T04:34:43.366Z,52.61
2018-07-28T04:39:47.136Z,52.53
2018-07-28T04:44:50.875Z,52.19
2018-07-28T04:49:54.554Z,52.79
2018-07-28T04:54:58.258Z,52.70
2018-07-28T05:00:05.223Z,52.93
2018-07-28T05:05:08.913Z,52.77
2018-07-28T05:10:12.688Z,52.67
2018-07-28T05:15:16.381Z,53.03
2018-07-28T05:20:19.988Z,53.16
2018-07-28T05:25:23.826Z,53.43
2018-07-28T05:30:28.130Z,53.01
2018-07-28T05:35:31.873Z,52.99
2018-07-28T05:40:35.582Z,53.12
2018-07-28T05:45:39.222Z,52.76
2018-07-28T05:50:43.562Z,53.10
2018-07-28T05:55:47.247Z,53.12
2018-07-28T06:00:51.043Z,52.80
2018-07-28T06:05:54.850Z,52.75
2018-07-28T06:10:58.578Z,52.50
2018-07-28T06:16:02.362Z,52.85
2018-07-28T06:21:06.209Z,52.52
2018-07-28T06:26:10.039Z,52.60
2018-07-28T06:31:13.723Z,52.49
2018-07-28T06:36:20.915Z,53.18
2018-07-28T06:41:25.851Z,52.91
2018-07-28T06:46:29.630Z,53.38
2018-07-28T06:51:33.453Z,52.91
2018-07-28T06:56:37.631Z,52.89
2018-07-28T07:01:42.442Z,53.13
2018-07-28T07:06:46.537Z,54.30
2018-07-28T07:11:50.226Z,54.60
2018-07-28T07:16:53.833Z,54.62
2018-07-28T07:21:57.549Z,55.00
2018-07-28T07:27:01.293Z,54.70
2018-07-28T07:32:05.063Z,54.96
2018-07-28T07:37:08.783Z,54.27
2018-07-28T07:42:12.678Z,55.26
2018-07-28T07:47:16.398Z,55.36
2018-07-28T07:52:20.155Z,54.47
2018-07-28T07:57:23.897Z,54.90
2018-07-28T08:02:27.672Z,53.40
2018-07-28T08:07:31.935Z,53.76
2018-07-28T08:12:35.688Z,53.71
2018-07-28T08:17:39.382Z,52.43
2018-07-28T08:22:43.104Z,52.05
2018-07-28T08:27:47.049Z,51.38
2018-07-28T08:32:50.832Z,51.48
2018-07-28T08:37:54.720Z,50.77
2018-07-28T08:42:58.542Z,51.08
2018-07-28T08:48:02.440Z,50.12
2018-07-28T08:53:06.565Z,50.85
2018-07-28T08:58:10.450Z,51.07
2018-07-28T09:03:15.125Z,50.93
2018-07-28T09:08:18.824Z,50.71
2018-07-28T09:13:22.514Z,50.40
2018-07-28T09:18:26.473Z,50.72
2018-07-28T09:23:30.301Z,50.51
2018-07-28T09:28:33.931Z,51.04
2018-07-28T09:33:37.724Z,50.37
2018-07-28T09:38:41.430Z,50.96
2018-07-28T09:43:45.205Z,50.39
2018-07-28T09:48:48.918Z,50.98
2018-07-28T09:53:52.546Z,50.50
2018-07-28T09:58:56.188Z,50.50
2018-07-28T10:03:59.945Z,50.91
2018-07-28T10:09:03.726Z,50.22
2018-07-28T10:14:07.504Z,50.74
2018-07-28T10:19:11.242Z,50.48
2018-07-28T10:24:14.964Z,50.82
2018-07-28T10:29:18.651Z,50.76
2018-07-28T10:34:22.325Z,50.62
2018-07-28T10:39:26.060Z,52.01
2018-07-28T10:44:29.810Z,52.22
2018-07-28T10:49:33.534Z,52.22
2018-07-28T10:54:37.207Z,52.22
2018-07-28T10:59:40.819Z,52.02
2018-07-28T11:04:44.602Z,51.75
2018-07-28T11:09:48.281Z,52.38
2018-07-28T11:14:51.929Z,52.19
2018-07-28T11:19:55.598Z,51.74
2018-07-28T11:24:59.374Z,51.84
2018-07-28T11:30:05.545Z,51.37
2018-07-28T11:35:20.374Z,51.70
2018-07-28T11:41:33.237Z,52.26
2018-07-28T11:46:37.031Z,52.38
2018-07-28T11:51:40.755Z,52.33
2018-07-28T11:56:44.383Z,52.25
2018-07-28T12:01:48.230Z,52.18
2018-07-28T12:06:51.907Z,52.27
2018-07-28T12:11:55.635Z,52.05
2018-07-28T12:16:59.330Z,52.13
2018-07-28T12:22:03.006Z,52.22
2018-07-28T12:27:06.839Z,52.24
2018-07-28T12:32:10.576Z,51.87
2018-07-28T12:37:14.191Z,52.22
2018-07-28T12:42:17.850Z,52.07
2018-07-28T12:47:21.503Z,52.13
2018-07-28T12:52:25.190Z,52.35
2018-07-28T12:57:29.259Z,52.37
2018-07-28T13:02:33.050Z,52.35
2018-07-28T13:07:36.785Z,51.94
2018-07-28T13:12:40.449Z,52.77
2018-07-28T13:17:44.262Z,52.10
2018-07-28T13:22:47.898Z,52.92
2018-07-28T13:27:51.543Z,52.33
2018-07-28T13:32:55.155Z,52.85
2018-07-28T13:37:59.966Z,53.17
2018-07-28T13:43:03.800Z,52.69
2018-07-28T13:48:07.533Z,52.69
2018-07-28T13:53:11.516Z,52.44
2018-07-28T13:58:15.359Z,52.50
2018-07-28T14:03:19.114Z,51.49
2018-07-28T14:08:22.791Z,51.66
2018-07-28T14:13:26.553Z,51.71
2018-07-28T14:18:30.503Z,51.75
2018-07-28T14:23:34.284Z,51.26
2018-07-28T14:28:38.230Z,47.64
2018-07-28T14:33:42.028Z,48.15
2018-07-28T14:38:45.689Z,49.25
2018-07-28T14:43:49.389Z,50.84
2018-07-28T14:48:53.323Z,56.22
2018-07-28T14:53:57.074Z,59.86
2018-07-28T14:59:01.193Z,62.00
2018-07-28T15:04:05.039Z,62.15
2018-07-28T15:09:10.590Z,63.02
2018-07-28T15:14:14.319Z,64.31
2018-07-28T15:19:18.324Z,59.68
2018-07-28T15:24:22.974Z,58.73
2018-07-28T15:29:28.003Z,61.12
2018-07-28T15:34:31.757Z,63.32
2018-07-28T15:39:35.546Z,66.39
2018-07-28T15:44:39.215Z,66.14
2018-07-28T15:49:44.294Z,66.58
2018-07-28T15:54:48.046Z,68.13
2018-07-28T15:59:51.792Z,68.23
2018-07-28T16:04:55.585Z,68.72
2018-07-28T16:09:59.419Z,67.23
2018-07-28T16:15:05.685Z,68.39
2018-07-28T16:20:09.601Z,66.34
2018-07-28T16:25:13.518Z,66.85
2018-07-28T16:30:17.213Z,65.10
2018-07-28T16:35:20.960Z,65.76
2018-07-28T16:40:24.811Z,66.80
2018-07-28T16:45:29.025Z,65.22
2018-07-28T16:50:32.878Z,60.80
2018-07-28T16:55:39.021Z,58.88
2018-07-28T17:00:42.647Z,59.72
2018-07-28T17:05:46.419Z,59.00
2018-07-28T17:10:50.223Z,58.68
2018-07-28T17:15:56.955Z,58.67
2018-07-28T17:21:00.817Z,57.82
2018-07-28T17:26:04.694Z,58.83
2018-07-28T17:31:08.832Z,57.79
2018-07-28T17:36:12.664Z,58.37
2018-07-28T17:41:16.802Z,57.81
2018-07-28T17:46:20.527Z,57.87
2018-07-28T17:51:24.422Z,57.64
2018-07-28T17:56:28.333Z,57.18
2018-07-28T18:01:32.122Z,57.19
2018-07-28T18:06:35.818Z,57.37
2018-07-28T18:11:39.514Z,58.33
2018-07-28T18:16:43.214Z,58.80
2018-07-28T18:21:46.891Z,57.99
2018-07-28T18:26:50.673Z,57.39
2018-07-28T18:31:55.447Z,61.52
2018-07-28T18:37:00.101Z,62.17
2018-07-28T18:42:03.968Z,62.85
2018-07-28T18:47:07.759Z,62.00
2018-07-28T18:52:11.843Z,63.09
2018-07-28T18:57:15.575Z,61.49
2018-07-28T19:02:19.517Z,58.45
2018-07-28T19:07:24.371Z,58.47
2018-07-28T19:12:33.818Z,57.54
2018-07-28T19:17:42.843Z,57.41
2018-07-28T19:22:51.777Z,57.45
2018-07-28T19:28:00.804Z,61.52
2018-07-28T19:33:12.708Z,58.61
2018-07-28T19:38:16.603Z,58.32
2018-07-28T19:43:20.378Z,57.79
2018-07-28T19:48:24.099Z,57.58
2018-07-28T19:53:27.799Z,57.65
2018-07-28T19:58:31.498Z,58.60
2018-07-28T20:03:35.165Z,57.91
2018-07-28T20:25:04.197Z,59.78
2018-07-28T20:30:08.109Z,60.72
2018-07-28T20:35:11.801Z,60.19
2018-07-28T20:40:15.463Z,59.83
2018-07-28T20:45:19.187Z,59.63
2018-07-28T20:50:22.889Z,58.42
2018-07-28T20:55:27.047Z,59.05
2018-07-28T21:00:30.806Z,55.29
2018-07-28T21:05:34.666Z,54.21
2018-07-28T21:10:38.366Z,54.32
2018-07-28T21:15:42.128Z,55.17
2018-07-28T21:20:45.919Z,54.91
2018-07-28T21:25:49.757Z,53.49
2018-07-28T21:30:53.375Z,53.62
2018-07-28T21:35:57.089Z,54.44
2018-07-28T21:41:00.729Z,54.90
2018-07-28T21:46:04.488Z,55.07
2018-07-28T21:51:08.372Z,54.60
2018-07-28T21:56:12.096Z,54.95
2018-07-28T22:01:17.319Z,52.82
2018-07-28T22:06:20.981Z,52.04
2018-07-28T22:11:24.676Z,54.05
2018-07-28T22:16:28.338Z,54.39
2018-07-28T22:21:32.047Z,54.13
2018-07-28T22:26:35.765Z,54.71
2018-07-28T22:31:39.658Z,54.46
2018-07-28T22:36:43.335Z,54.27
2018-07-28T22:41:47.033Z,52.33
2018-07-28T22:46:50.755Z,51.08
2018-07-28T22:51:54.422Z,50.65
2018-07-28T22:56:58.096Z,51.41
2018-07-28T23:02:01.733Z,52.47
2018-07-28T23:07:05.462Z,50.58
2018-07-28T23:12:09.074Z,50.41
2018-07-28T23:17:12.667Z,51.36
2018-07-28T23:22:19.294Z,51.25
2018-07-28T23:27:22.938Z,51.80
2018-07-28T23:32:26.749Z,52.62
2018-07-28T23:37:30.441Z,51.46
2018-07-28T23:42:34.113Z,52.17
2018-07-28T23:47:37.771Z,52.87
2018-07-28T23:52:41.406Z,52.07
2018-07-28T23:57:45.140Z,50.92
